Terminal Aerodrome Forecast
Issued by NWS

Home | Current Version | Previous Version | Text Only | Print | Product List | Glossary On
Versions: 1 2 3 4 5 6 7 8 9 10 11 12 13 14
000
FTUS45 KMSO 220525
TAFSMN
TAF
KSMN 220525Z 2206/2306 VRB06KT P6SM SCT090
     FM222300 25007KT P6SM VCSH BKN050 OVC070
     FM230100 36010KT P6SM -SHRA BKN040 OVC070=

USA.gov is the U.S. government's official web portal to all federal, state and local government web resources and services.